Time;durP1;ratioP1;P1;durP2;ratioP2;P2;SDS_P1;SDS_P2;PMS_P1;PMS_P2;Temp;Humidity;BMP_temperature;BMP_pressure;BME280_temperature;BME280_humidity;BME280_pressure;Samples;Min_cycle;Max_cycle;Signal;HPM_P1;HPM_P2
2021/01/18 00:00:48;;;;;;;4.11;2.48;;;;;;;18.04;43.72;101155.72;;;;-54
2021/01/18 00:03:48;;;;;;;2.98;2.68;;;;;;;18.03;43.65;101157.30;;;;-54
2021/01/18 00:06:48;;;;;;;2.92;2.43;;;;;;;17.99;43.75;101159.64;;;;-54
2021/01/18 00:09:48;;;;;;;3.22;2.59;;;;;;;17.97;43.72;101164.57;;;;-54
2021/01/18 00:12:48;;;;;;;3.05;2.57;;;;;;;17.95;43.78;101160.19;;;;-59
2021/01/18 00:15:48;;;;;;;2.87;2.57;;;;;;;17.93;43.72;101157.91;;;;-59
2021/01/18 00:18:48;;;;;;;2.91;2.61;;;;;;;17.92;43.74;101159.23;;;;-54
2021/01/18 00:21:48;;;;;;;4.04;2.61;;;;;;;17.90;43.63;101153.44;;;;-54
2021/01/18 00:24:48;;;;;;;2.79;2.47;;;;;;;17.87;43.71;101151.76;;;;-54
2021/01/18 00:27:48;;;;;;;3.37;2.67;;;;;;;17.85;43.75;101150.48;;;;-54
2021/01/18 00:30:48;;;;;;;2.72;2.47;;;;;;;17.85;43.77;101150.08;;;;-54
2021/01/18 00:33:48;;;;;;;3.06;2.70;;;;;;;17.82;43.76;101144.94;;;;-60
2021/01/18 00:36:48;;;;;;;2.97;2.50;;;;;;;17.81;43.75;101151.09;;;;-61
2021/01/18 00:39:48;;;;;;;2.80;2.59;;;;;;;17.78;43.73;101146.50;;;;-60
2021/01/18 00:42:48;;;;;;;2.91;2.61;;;;;;;17.78;43.75;101139.23;;;;-60
2021/01/18 00:45:48;;;;;;;3.33;2.73;;;;;;;17.76;43.75;101140.00;;;;-61
2021/01/18 00:48:48;;;;;;;3.53;2.40;;;;;;;17.74;43.73;101140.92;;;;-61
2021/01/18 00:51:48;;;;;;;2.70;2.45;;;;;;;17.73;43.82;101140.11;;;;-54
2021/01/18 00:54:48;;;;;;;2.66;2.46;;;;;;;17.71;43.84;101137.06;;;;-55
2021/01/18 00:57:48;;;;;;;2.51;2.30;;;;;;;17.69;43.79;101136.84;;;;-55
2021/01/18 01:00:48;;;;;;;2.73;2.50;;;;;;;17.65;43.87;101133.11;;;;-56
2021/01/18 01:03:48;;;;;;;3.04;2.63;;;;;;;17.64;43.91;101138.93;;;;-56
2021/01/18 01:06:48;;;;;;;3.13;2.70;;;;;;;17.63;43.80;101137.59;;;;-59
2021/01/18 01:09:48;;;;;;;3.26;2.52;;;;;;;17.62;43.87;101134.26;;;;-59
2021/01/18 01:12:48;;;;;;;3.25;2.37;;;;;;;17.60;43.83;101136.92;;;;-59
2021/01/18 01:15:48;;;;;;;2.93;2.63;;;;;;;17.58;43.87;101145.19;;;;-59
2021/01/18 01:18:48;;;;;;;2.53;2.33;;;;;;;17.57;43.87;101146.59;;;;-59
2021/01/18 01:21:48;;;;;;;3.09;2.38;;;;;;;17.54;43.92;101150.75;;;;-59
2021/01/18 01:24:48;;;;;;;3.07;2.48;;;;;;;17.53;43.90;101157.19;;;;-60
2021/01/18 01:27:48;;;;;;;2.72;2.51;;;;;;;17.52;43.94;101157.91;;;;-59
2021/01/18 01:30:48;;;;;;;2.70;2.50;;;;;;;17.51;43.86;101161.42;;;;-59
2021/01/18 01:33:48;;;;;;;2.62;2.37;;;;;;;17.50;43.96;101162.80;;;;-59
2021/01/18 01:36:48;;;;;;;2.47;2.25;;;;;;;17.48;43.91;101168.90;;;;-56
2021/01/18 01:39:48;;;;;;;2.49;2.29;;;;;;;17.45;43.94;101172.17;;;;-56
2021/01/18 01:42:48;;;;;;;2.59;2.39;;;;;;;17.45;43.94;101172.69;;;;-56
2021/01/18 01:45:48;;;;;;;2.91;2.35;;;;;;;17.43;43.92;101173.13;;;;-56
2021/01/18 01:48:48;;;;;;;2.81;2.31;;;;;;;17.41;44.00;101171.78;;;;-57
2021/01/18 01:51:48;;;;;;;2.50;2.29;;;;;;;17.38;44.04;101170.27;;;;-55
2021/01/18 01:54:48;;;;;;;2.71;2.31;;;;;;;17.37;44.04;101173.08;;;;-55
2021/01/18 01:57:48;;;;;;;2.50;2.30;;;;;;;17.36;43.98;101167.45;;;;-54
2021/01/18 02:00:48;;;;;;;2.76;2.50;;;;;;;17.33;44.07;101165.93;;;;-54
2021/01/18 02:03:48;;;;;;;2.60;2.40;;;;;;;17.32;44.02;101169.20;;;;-54
2021/01/18 02:06:48;;;;;;;2.81;2.38;;;;;;;17.31;44.00;101166.44;;;;-56
2021/01/18 02:09:48;;;;;;;2.53;2.33;;;;;;;17.30;44.10;101166.64;;;;-57
2021/01/18 02:12:48;;;;;;;2.47;2.27;;;;;;;17.28;44.03;101167.31;;;;-57
2021/01/18 02:15:48;;;;;;;2.53;2.33;;;;;;;17.28;44.09;101169.26;;;;-57
2021/01/18 02:18:48;;;;;;;2.66;2.45;;;;;;;17.26;44.07;101170.75;;;;-56
2021/01/18 02:21:48;;;;;;;2.39;2.19;;;;;;;17.25;44.05;101175.75;;;;-57
2021/01/18 02:27:48;;;;;;;2.52;2.19;;;;;;;17.23;44.09;101176.02;;;;-59
2021/01/18 02:30:48;;;;;;;2.99;2.29;;;;;;;17.21;44.08;101176.77;;;;-60
2021/01/18 02:33:48;;;;;;;2.65;2.37;;;;;;;17.20;44.07;101176.24;;;;-60
2021/01/18 02:36:48;;;;;;;2.50;2.30;;;;;;;17.19;44.12;101178.98;;;;-60
2021/01/18 02:39:48;;;;;;;2.95;2.32;;;;;;;17.17;44.08;101182.66;;;;-60
2021/01/18 02:42:48;;;;;;;3.85;2.42;;;;;;;17.17;44.14;101181.61;;;;-59
2021/01/18 02:45:48;;;;;;;2.33;2.13;;;;;;;17.15;44.17;101185.77;;;;-60
2021/01/18 02:48:48;;;;;;;3.27;2.37;;;;;;;17.14;44.11;101184.78;;;;-60
2021/01/18 02:51:48;;;;;;;2.51;2.22;;;;;;;17.13;44.07;101186.92;;;;-61
2021/01/18 02:54:48;;;;;;;2.61;2.31;;;;;;;17.12;44.16;101185.82;;;;-61
2021/01/18 02:57:48;;;;;;;2.53;2.16;;;;;;;17.12;44.12;101191.57;;;;-57
2021/01/18 03:00:48;;;;;;;2.47;2.25;;;;;;;17.10;44.11;101192.33;;;;-56
2021/01/18 03:03:48;;;;;;;2.35;2.13;;;;;;;17.10;44.09;101194.11;;;;-57
2021/01/18 03:06:48;;;;;;;2.49;2.23;;;;;;;17.08;44.14;101191.66;;;;-57
2021/01/18 03:09:48;;;;;;;2.51;2.30;;;;;;;17.07;44.17;101195.66;;;;-57
2021/01/18 03:12:48;;;;;;;2.72;2.23;;;;;;;17.06;44.16;101197.27;;;;-54
2021/01/18 03:15:48;;;;;;;2.39;2.19;;;;;;;17.04;44.14;101201.58;;;;-54
2021/01/18 03:18:48;;;;;;;2.94;2.29;;;;;;;17.03;44.15;101198.88;;;;-54
2021/01/18 03:21:48;;;;;;;2.82;2.29;;;;;;;17.02;44.19;101195.45;;;;-54
2021/01/18 03:24:48;;;;;;;2.45;2.19;;;;;;;17.01;44.17;101198.24;;;;-60
2021/01/18 03:27:48;;;;;;;2.45;2.10;;;;;;;17.01;44.16;101198.24;;;;-60
2021/01/18 03:30:48;;;;;;;2.44;2.14;;;;;;;17.00;44.24;101199.28;;;;-60
2021/01/18 03:33:48;;;;;;;2.63;2.31;;;;;;;16.99;44.22;101203.52;;;;-59
2021/01/18 03:36:48;;;;;;;2.39;2.19;;;;;;;16.98;44.22;101203.02;;;;-60
2021/01/18 03:39:48;;;;;;;2.50;2.30;;;;;;;16.97;44.17;101203.55;;;;-59
2021/01/18 03:42:48;;;;;;;2.59;2.27;;;;;;;16.96;44.20;101205.08;;;;-60
2021/01/18 03:45:48;;;;;;;2.65;2.34;;;;;;;16.94;44.22;101206.39;;;;-57
2021/01/18 03:48:48;;;;;;;2.53;2.27;;;;;;;16.93;44.24;101207.28;;;;-56
2021/01/18 03:51:48;;;;;;;2.52;2.27;;;;;;;16.92;44.22;101202.28;;;;-57
2021/01/18 03:54:48;;;;;;;2.35;2.15;;;;;;;16.92;44.18;101206.81;;;;-57
2021/01/18 03:57:48;;;;;;;2.67;2.24;;;;;;;16.91;44.27;101207.66;;;;-57
2021/01/18 04:00:48;;;;;;;2.27;2.07;;;;;;;16.89;44.23;101211.85;;;;-56
2021/01/18 04:03:48;;;;;;;2.29;2.09;;;;;;;16.89;44.26;101218.77;;;;-60
2021/01/18 04:06:48;;;;;;;2.95;2.35;;;;;;;16.87;44.27;101219.56;;;;-60
2021/01/18 04:09:48;;;;;;;2.11;1.93;;;;;;;16.87;44.26;101225.52;;;;-55
2021/01/18 04:12:48;;;;;;;2.91;2.20;;;;;;;16.86;44.27;101229.15;;;;-54
2021/01/18 04:15:48;;;;;;;2.36;2.16;;;;;;;16.85;44.28;101221.01;;;;-60
2021/01/18 04:18:48;;;;;;;2.21;2.01;;;;;;;16.84;44.25;101225.05;;;;-61
2021/01/18 04:21:48;;;;;;;2.27;2.07;;;;;;;16.84;44.30;101222.20;;;;-60
2021/01/18 04:24:48;;;;;;;2.39;2.19;;;;;;;16.83;44.28;101223.89;;;;-61
2021/01/18 04:27:48;;;;;;;2.49;2.04;;;;;;;16.82;44.27;101222.39;;;;-60
2021/01/18 04:30:48;;;;;;;2.30;2.07;;;;;;;16.80;44.26;101225.94;;;;-60
2021/01/18 04:33:48;;;;;;;2.36;2.11;;;;;;;16.79;44.27;101221.80;;;;-61
2021/01/18 04:36:48;;;;;;;2.39;2.14;;;;;;;16.79;44.28;101226.82;;;;-54
2021/01/18 04:39:48;;;;;;;2.30;2.09;;;;;;;16.79;44.25;101225.52;;;;-55
2021/01/18 04:42:48;;;;;;;2.25;2.05;;;;;;;16.78;44.29;101230.66;;;;-54
2021/01/18 04:45:48;;;;;;;2.30;2.10;;;;;;;16.77;44.24;101228.14;;;;-54
2021/01/18 04:48:48;;;;;;;2.17;1.99;;;;;;;16.76;44.25;101230.92;;;;-55
2021/01/18 04:51:48;;;;;;;2.37;2.17;;;;;;;16.76;44.27;101232.38;;;;-54
2021/01/18 04:54:48;;;;;;;2.75;2.22;;;;;;;16.75;44.26;101229.45;;;;-55
2021/01/18 04:57:48;;;;;;;2.52;2.10;;;;;;;16.74;44.28;101227.94;;;;-60
2021/01/18 05:00:48;;;;;;;2.33;2.13;;;;;;;16.72;44.28;101230.41;;;;-61
2021/01/18 05:03:48;;;;;;;2.11;1.90;;;;;;;16.71;44.32;101227.63;;;;-60
2021/01/18 05:06:48;;;;;;;2.23;2.03;;;;;;;16.71;44.29;101226.34;;;;-61
2021/01/18 05:09:48;;;;;;;2.41;2.20;;;;;;;16.71;44.28;101223.01;;;;-61
2021/01/18 05:12:48;;;;;;;2.59;2.03;;;;;;;16.70;44.36;101227.17;;;;-61
2021/01/18 05:15:48;;;;;;;2.29;2.09;;;;;;;16.68;44.35;101224.53;;;;-60
2021/01/18 05:18:48;;;;;;;2.29;2.09;;;;;;;16.67;44.33;101224.84;;;;-61
2021/01/18 05:21:48;;;;;;;2.25;2.05;;;;;;;16.67;44.30;101231.15;;;;-60
2021/01/18 05:24:48;;;;;;;2.43;2.21;;;;;;;16.65;44.30;101234.00;;;;-60
2021/01/18 05:27:48;;;;;;;2.09;1.93;;;;;;;16.64;44.35;101236.79;;;;-61
2021/01/18 05:30:48;;;;;;;2.70;2.14;;;;;;;16.64;44.32;101239.54;;;;-59
2021/01/18 05:33:48;;;;;;;2.12;1.92;;;;;;;16.63;44.34;101245.92;;;;-60
2021/01/18 05:36:48;;;;;;;2.70;2.10;;;;;;;16.62;44.32;101243.31;;;;-60
2021/01/18 05:39:48;;;;;;;2.20;2.00;;;;;;;16.61;44.33;101242.63;;;;-61
2021/01/18 05:42:48;;;;;;;2.31;2.11;;;;;;;16.61;44.35;101246.82;;;;-60
2021/01/18 05:45:48;;;;;;;2.69;2.00;;;;;;;16.61;44.34;101255.16;;;;-60
2021/01/18 05:48:48;;;;;;;2.24;2.03;;;;;;;16.60;44.36;101257.89;;;;-57
2021/01/18 05:51:48;;;;;;;2.42;2.10;;;;;;;16.59;44.36;101259.72;;;;-55
2021/01/18 05:54:48;;;;;;;2.20;2.00;;;;;;;16.59;44.35;101267.06;;;;-57
2021/01/18 05:57:48;;;;;;;2.06;1.90;;;;;;;16.57;44.37;101271.30;;;;-56
2021/01/18 06:00:48;;;;;;;2.14;1.97;;;;;;;16.56;44.40;101269.51;;;;-56
2021/01/18 06:03:48;;;;;;;2.55;1.99;;;;;;;16.56;44.38;101271.57;;;;-57
2021/01/18 06:06:48;;;;;;;8.55;3.43;;;;;;;16.52;43.40;101271.92;;;;-56
2021/01/18 06:09:48;;;;;;;8.28;4.39;;;;;;;16.20;43.11;101278.44;;;;-52
2021/01/18 06:12:48;;;;;;;8.21;4.55;;;;;;;15.97;43.28;101278.72;;;;-56
2021/01/18 06:15:48;;;;;;;9.11;4.91;;;;;;;15.76;43.35;101280.37;;;;-56
2021/01/18 06:18:48;;;;;;;8.39;5.20;;;;;;;15.70;43.36;101282.30;;;;-48
2021/01/18 06:21:48;;;;;;;8.57;5.09;;;;;;;15.68;43.73;101278.17;;;;-50
2021/01/18 06:24:48;;;;;;;8.87;4.61;;;;;;;15.79;43.79;101278.51;;;;-53
2021/01/18 06:27:48;;;;;;;6.51;4.01;;;;;;;15.90;43.82;101280.53;;;;-53
2021/01/18 06:30:48;;;;;;;6.48;3.75;;;;;;;16.00;43.83;101277.11;;;;-50
2021/01/18 06:33:48;;;;;;;7.79;3.66;;;;;;;16.07;43.84;101280.13;;;;-51
2021/01/18 06:36:48;;;;;;;4.99;3.45;;;;;;;16.14;43.78;101281.35;;;;-51
2021/01/18 06:39:48;;;;;;;6.26;3.57;;;;;;;16.21;43.87;101278.56;;;;-51
2021/01/18 06:42:48;;;;;;;5.50;3.32;;;;;;;16.26;43.94;101284.94;;;;-51
2021/01/18 06:45:48;;;;;;;4.56;3.21;;;;;;;16.30;44.06;101288.88;;;;-53
2021/01/18 06:48:50;;;;;;;4.61;2.82;;;;;;;16.35;44.04;101289.80;;;;-53
2021/01/18 06:51:48;;;;;;;5.13;2.81;;;;;;;16.41;44.06;101293.03;;;;-50
2021/01/18 06:54:48;;;;;;;4.04;2.77;;;;;;;16.46;44.08;101295.95;;;;-53
2021/01/18 06:57:48;;;;;;;5.02;2.82;;;;;;;16.51;44.11;101297.31;;;;-53
2021/01/18 07:00:48;;;;;;;4.29;2.76;;;;;;;16.56;44.09;101300.02;;;;-53
2021/01/18 07:03:48;;;;;;;4.05;2.51;;;;;;;16.61;44.10;101301.52;;;;-53
2021/01/18 07:06:48;;;;;;;2.96;2.45;;;;;;;16.66;44.17;101300.30;;;;-51
2021/01/18 07:09:48;;;;;;;3.99;2.57;;;;;;;16.73;44.15;101307.41;;;;-51
2021/01/18 07:12:48;;;;;;;3.41;2.45;;;;;;;16.77;44.20;101308.75;;;;-50
2021/01/18 07:15:49;;;;;;;3.33;2.42;;;;;;;16.82;44.34;101310.63;;;;-50
2021/01/18 07:18:48;;;;;;;3.84;2.53;;;;;;;16.86;44.31;101316.10;;;;-50
2021/01/18 07:21:48;;;;;;;2.68;2.23;;;;;;;16.90;44.30;101323.83;;;;-50
2021/01/18 07:24:48;;;;;;;3.93;2.34;;;;;;;16.93;44.28;101325.77;;;;-51
2021/01/18 07:27:48;;;;;;;3.91;2.47;;;;;;;16.96;44.38;101330.26;;;;-50
2021/01/18 07:30:49;;;;;;;4.09;2.29;;;;;;;16.99;44.33;101338.84;;;;-50
2021/01/18 07:33:48;;;;;;;2.73;2.29;;;;;;;17.00;44.32;101334.52;;;;-50
2021/01/18 07:36:48;;;;;;;2.98;2.23;;;;;;;17.03;44.32;101336.13;;;;-50
2021/01/18 07:39:50;;;;;;;3.05;2.35;;;;;;;17.04;44.28;101335.03;;;;-51
2021/01/18 07:42:48;;;;;;;3.26;2.35;;;;;;;17.06;44.27;101333.95;;;;-51
2021/01/18 07:45:48;;;;;;;2.49;2.11;;;;;;;17.07;44.31;101334.78;;;;-51
2021/01/18 07:48:48;;;;;;;2.71;2.10;;;;;;;17.07;44.18;101336.01;;;;-50
2021/01/18 07:51:48;;;;;;;3.74;2.19;;;;;;;17.08;44.20;101341.55;;;;-52
2021/01/18 07:54:48;;;;;;;2.37;2.12;;;;;;;17.08;44.30;101339.21;;;;-53
2021/01/18 07:57:48;;;;;;;3.59;2.08;;;;;;;17.08;44.22;101342.13;;;;-53
2021/01/18 08:00:48;;;;;;;2.20;1.97;;;;;;;17.09;44.21;101348.14;;;;-53
2021/01/18 08:03:48;;;;;;;2.85;2.09;;;;;;;17.10;44.15;101353.65;;;;-54
2021/01/18 08:06:48;;;;;;;3.05;2.34;;;;;;;17.09;44.16;101355.25;;;;-53
2021/01/18 08:09:48;;;;;;;2.69;2.03;;;;;;;17.09;44.10;101354.53;;;;-53
2021/01/18 08:12:48;;;;;;;3.47;2.11;;;;;;;17.09;44.15;101355.09;;;;-54
2021/01/18 08:15:48;;;;;;;2.30;1.95;;;;;;;17.08;44.10;101352.66;;;;-53
2021/01/18 08:18:48;;;;;;;2.69;2.01;;;;;;;17.08;44.16;101352.30;;;;-50
2021/01/18 08:21:48;;;;;;;2.65;2.01;;;;;;;17.07;44.13;101353.17;;;;-51
2021/01/18 08:24:48;;;;;;;2.52;1.86;;;;;;;17.08;44.10;101358.65;;;;-50
2021/01/18 08:27:48;;;;;;;2.45;2.02;;;;;;;17.07;44.11;101353.66;;;;-50
2021/01/18 08:30:48;;;;;;;2.98;2.12;;;;;;;17.08;44.07;101353.38;;;;-50
2021/01/18 08:33:48;;;;;;;2.25;1.95;;;;;;;17.07;44.10;101351.14;;;;-51
2021/01/18 08:36:48;;;;;;;2.33;2.07;;;;;;;17.07;44.13;101357.94;;;;-51
2021/01/18 08:39:48;;;;;;;2.61;2.07;;;;;;;17.06;44.13;101364.83;;;;-50
2021/01/18 08:42:48;;;;;;;2.10;1.90;;;;;;;17.06;44.10;101366.93;;;;-53
2021/01/18 08:45:48;;;;;;;2.28;2.00;;;;;;;17.06;44.05;101366.84;;;;-50
2021/01/18 08:48:48;;;;;;;2.49;1.99;;;;;;;17.06;44.05;101367.25;;;;-54
2021/01/18 08:51:48;;;;;;;2.33;2.03;;;;;;;17.07;44.05;101367.02;;;;-54
2021/01/18 08:54:48;;;;;;;2.66;2.01;;;;;;;17.07;44.18;101368.80;;;;-50
2021/01/18 08:57:52;;;;;;;5.25;2.27;;;;;;;17.08;44.82;101364.31;;;;-58
2021/01/18 09:00:48;;;;;;;7.54;2.32;;;;;;;17.09;44.91;101365.70;;;;-54
2021/01/18 09:03:48;;;;;;;2.75;2.22;;;;;;;17.12;45.11;101365.33;;;;-56
2021/01/18 09:06:48;;;;;;;6.01;2.50;;;;;;;17.15;44.94;101368.72;;;;-57
2021/01/18 09:09:48;;;;;;;3.35;2.19;;;;;;;17.18;44.52;101372.16;;;;-56
2021/01/18 09:12:48;;;;;;;5.47;2.60;;;;;;;17.22;44.64;101367.22;;;;-44
2021/01/18 09:15:48;;;;;;;5.75;2.66;;;;;;;17.26;44.99;101365.80;;;;-51
2021/01/18 09:18:48;;;;;;;9.99;2.75;;;;;;;17.32;44.79;101364.38;;;;-57
2021/01/18 09:21:48;;;;;;;6.59;2.40;;;;;;;17.37;44.58;101376.25;;;;-50
2021/01/18 09:24:48;;;;;;;6.44;2.49;;;;;;;17.40;44.38;101371.58;;;;-50
2021/01/18 09:27:48;;;;;;;4.57;2.37;;;;;;;17.47;44.68;101368.20;;;;-51
2021/01/18 09:30:48;;;;;;;6.58;2.54;;;;;;;17.52;44.91;101364.16;;;;-48
2021/01/18 09:33:48;;;;;;;6.78;2.71;;;;;;;17.55;44.23;101360.34;;;;-52
2021/01/18 09:36:49;;;;;;;4.17;2.30;;;;;;;17.58;43.85;101361.49;;;;-48
2021/01/18 09:39:48;;;;;;;7.16;2.59;;;;;;;17.63;44.53;101357.97;;;;-48
2021/01/18 09:42:48;;;;;;;4.21;2.19;;;;;;;17.69;44.79;101357.98;;;;-47
2021/01/18 09:45:48;;;;;;;3.69;2.16;;;;;;;17.75;44.83;101345.52;;;;-49
2021/01/18 09:48:48;;;;;;;4.87;2.43;;;;;;;17.79;44.94;101352.84;;;;-51
2021/01/18 09:51:48;;;;;;;3.24;2.02;;;;;;;17.83;44.93;101346.82;;;;-51
2021/01/18 09:54:48;;;;;;;3.33;2.11;;;;;;;17.89;45.11;101353.23;;;;-56
2021/01/18 09:57:48;;;;;;;4.73;2.20;;;;;;;17.93;44.90;101354.31;;;;-51
2021/01/18 10:00:48;;;;;;;4.54;2.13;;;;;;;17.97;45.07;101353.01;;;;-52
2021/01/18 10:03:48;;;;;;;4.50;2.30;;;;;;;18.01;44.73;101357.42;;;;-55
2021/01/18 10:06:48;;;;;;;5.17;2.20;;;;;;;18.01;44.56;101353.48;;;;-53
2021/01/18 10:09:48;;;;;;;5.79;2.15;;;;;;;18.03;44.42;101353.25;;;;-52
2021/01/18 10:12:48;;;;;;;3.44;2.03;;;;;;;18.04;44.27;101352.58;;;;-53
2021/01/18 10:15:48;;;;;;;3.49;2.05;;;;;;;18.06;44.44;101354.41;;;;-53
2021/01/18 10:18:49;;;;;;;3.53;2.09;;;;;;;18.07;44.21;101353.53;;;;-55
2021/01/18 10:21:48;;;;;;;2.14;1.94;;;;;;;18.09;44.29;101360.72;;;;-53
2021/01/18 10:24:48;;;;;;;3.07;1.91;;;;;;;18.11;44.14;101359.88;;;;-52
2021/01/18 10:27:48;;;;;;;3.73;2.07;;;;;;;18.12;44.08;101356.19;;;;-56
2021/01/18 10:30:48;;;;;;;3.05;2.13;;;;;;;18.15;44.17;101360.72;;;;-55
2021/01/18 10:33:48;;;;;;;3.85;2.26;;;;;;;18.16;44.15;101365.95;;;;-54
2021/01/18 10:36:48;;;;;;;3.09;2.11;;;;;;;18.18;44.18;101365.69;;;;-55
2021/01/18 10:39:49;;;;;;;9.59;2.15;;;;;;;18.21;44.15;101363.47;;;;-55
2021/01/18 10:42:48;;;;;;;3.41;2.00;;;;;;;18.22;44.16;101358.73;;;;-54
2021/01/18 10:45:48;;;;;;;2.60;1.97;;;;;;;18.23;44.13;101360.85;;;;-55
2021/01/18 10:48:48;;;;;;;3.73;1.90;;;;;;;18.26;44.00;101356.04;;;;-55
2021/01/18 10:51:48;;;;;;;3.49;2.10;;;;;;;18.27;44.05;101350.00;;;;-55
2021/01/18 10:54:48;;;;;;;3.33;2.03;;;;;;;18.30;43.96;101349.97;;;;-54
2021/01/18 10:57:48;;;;;;;2.44;1.85;;;;;;;18.31;44.01;101349.95;;;;-54
2021/01/18 11:00:48;;;;;;;2.47;2.06;;;;;;;18.33;44.01;101342.85;;;;-53
2021/01/18 11:03:48;;;;;;;3.02;1.87;;;;;;;18.35;43.93;101348.34;;;;-52
2021/01/18 11:06:48;;;;;;;3.71;2.03;;;;;;;18.42;44.40;101350.86;;;;-54
2021/01/18 11:09:48;;;;;;;3.29;2.00;;;;;;;18.43;44.18;101346.11;;;;-54
2021/01/18 11:12:48;;;;;;;3.85;1.95;;;;;;;18.43;44.03;101343.84;;;;-52
2021/01/18 11:15:48;;;;;;;4.03;1.80;;;;;;;18.44;43.99;101344.73;;;;-52
2021/01/18 11:18:48;;;;;;;2.26;1.73;;;;;;;18.45;43.95;101344.42;;;;-52
2021/01/18 11:21:48;;;;;;;2.49;1.90;;;;;;;18.45;43.95;101342.27;;;;-54
2021/01/18 11:24:48;;;;;;;3.04;1.90;;;;;;;18.47;43.87;101342.20;;;;-51
2021/01/18 11:27:48;;;;;;;3.55;2.01;;;;;;;18.47;43.87;101336.31;;;;-54
2021/01/18 11:30:48;;;;;;;1.95;1.69;;;;;;;18.48;43.89;101334.70;;;;-55
2021/01/18 11:33:48;;;;;;;3.32;1.88;;;;;;;18.48;43.91;101332.10;;;;-54
2021/01/18 11:36:48;;;;;;;1.77;1.67;;;;;;;18.50;43.89;101330.68;;;;-54
2021/01/18 11:39:48;;;;;;;2.15;1.70;;;;;;;18.51;43.82;101330.73;;;;-54
2021/01/18 11:42:48;;;;;;;2.30;1.90;;;;;;;18.51;43.79;101323.70;;;;-52
2021/01/18 11:45:48;;;;;;;2.06;1.81;;;;;;;18.53;43.81;101323.03;;;;-52
2021/01/18 11:48:48;;;;;;;2.09;1.80;;;;;;;18.54;43.72;101321.94;;;;-52
2021/01/18 11:51:48;;;;;;;3.63;1.90;;;;;;;18.55;43.79;101320.97;;;;-52
2021/01/18 11:54:48;;;;;;;3.37;1.69;;;;;;;18.56;43.78;101312.24;;;;-51
2021/01/18 11:57:48;;;;;;;2.28;1.79;;;;;;;18.57;43.73;101310.09;;;;-51
2021/01/18 12:00:48;;;;;;;2.17;1.86;;;;;;;18.59;43.72;101311.08;;;;-51
2021/01/18 12:03:48;;;;;;;3.07;1.91;;;;;;;18.60;43.74;101304.37;;;;-51
2021/01/18 12:06:48;;;;;;;1.98;1.78;;;;;;;18.63;43.75;101303.71;;;;-52
2021/01/18 12:09:48;;;;;;;4.36;1.96;;;;;;;18.65;44.21;101300.35;;;;-54
2021/01/18 12:12:49;;;;;;;2.81;1.89;;;;;;;18.68;44.15;101298.81;;;;-52
2021/01/18 12:15:48;;;;;;;2.41;1.80;;;;;;;18.71;44.05;101296.91;;;;-55
2021/01/18 12:18:48;;;;;;;2.27;1.90;;;;;;;18.74;44.08;101294.48;;;;-57
2021/01/18 12:21:50;;;;;;;2.73;1.84;;;;;;;18.76;44.16;101288.93;;;;-54
2021/01/18 12:24:48;;;;;;;4.14;1.80;;;;;;;18.77;44.08;101289.66;;;;-52
2021/01/18 12:27:48;;;;;;;5.16;2.03;;;;;;;18.77;43.86;101287.72;;;;-52
2021/01/18 12:30:48;;;;;;;3.81;1.93;;;;;;;18.79;43.84;101283.25;;;;-52
2021/01/18 12:33:48;;;;;;;2.95;1.99;;;;;;;18.81;43.93;101279.72;;;;-55
2021/01/18 12:36:48;;;;;;;3.35;1.81;;;;;;;18.83;43.85;101275.13;;;;-53
2021/01/18 12:39:48;;;;;;;4.44;2.10;;;;;;;18.85;44.03;101264.86;;;;-52
2021/01/18 12:42:48;;;;;;;7.19;2.07;;;;;;;18.87;44.27;101262.88;;;;-57
2021/01/18 12:45:48;;;;;;;2.71;1.90;;;;;;;18.90;44.40;101253.51;;;;-48
2021/01/18 12:48:49;;;;;;;3.60;1.83;;;;;;;18.92;44.38;101245.67;;;;-54
2021/01/18 12:51:48;;;;;;;2.66;1.81;;;;;;;18.94;44.48;101241.50;;;;-52
2021/01/18 12:54:48;;;;;;;4.03;2.33;;;;;;;18.91;43.14;101235.76;;;;-53
2021/01/18 12:57:48;;;;;;;10.11;2.41;;;;;;;18.94;43.92;101232.80;;;;-51
2021/01/18 13:00:48;;;;;;;2.67;2.10;;;;;;;18.99;44.01;101225.21;;;;-52
2021/01/18 13:03:48;;;;;;;4.33;1.85;;;;;;;19.00;44.11;101222.86;;;;-53
2021/01/18 13:06:48;;;;;;;2.99;1.82;;;;;;;19.02;43.94;101224.61;;;;-54
2021/01/18 13:09:48;;;;;;;2.42;2.05;;;;;;;19.04;44.17;101225.30;;;;-55
2021/01/18 13:12:48;;;;;;;2.99;1.97;;;;;;;19.07;44.23;101225.83;;;;-55
2021/01/18 13:15:48;;;;;;;3.77;1.98;;;;;;;19.08;44.15;101220.43;;;;-58
2021/01/18 13:18:48;;;;;;;4.57;2.00;;;;;;;19.10;44.35;101217.05;;;;-56
2021/01/18 13:21:48;;;;;;;3.31;1.76;;;;;;;19.12;44.26;101214.17;;;;-52
2021/01/18 13:24:48;;;;;;;3.06;1.60;;;;;;;19.14;44.29;101198.28;;;;-54
2021/01/18 13:27:48;;;;;;;2.93;1.88;;;;;;;19.15;44.16;101194.02;;;;-56
2021/01/18 13:30:48;;;;;;;3.67;1.87;;;;;;;19.16;44.24;101186.70;;;;-56
2021/01/18 13:33:48;;;;;;;3.73;1.67;;;;;;;19.20;44.38;101186.45;;;;-56
2021/01/18 13:36:48;;;;;;;2.21;1.71;;;;;;;19.22;44.35;101189.34;;;;-54
2021/01/18 13:39:48;;;;;;;2.42;1.71;;;;;;;19.25;44.27;101186.14;;;;-54
2021/01/18 13:42:48;;;;;;;1.94;1.54;;;;;;;19.28;44.29;101201.41;;;;-52
2021/01/18 13:45:48;;;;;;;2.68;1.79;;;;;;;19.32;44.34;101184.71;;;;-54
2021/01/18 13:48:48;;;;;;;3.37;1.81;;;;;;;19.34;44.31;101183.13;;;;-52
2021/01/18 13:51:48;;;;;;;2.32;1.65;;;;;;;19.37;44.41;101186.13;;;;-55
2021/01/18 13:54:49;;;;;;;1.96;1.61;;;;;;;19.42;44.61;101185.47;;;;-52
2021/01/18 13:57:48;;;;;;;3.79;1.86;;;;;;;19.41;44.16;101187.58;;;;-52
2021/01/18 14:00:48;;;;;;;3.41;1.74;;;;;;;19.41;43.97;101189.86;;;;-50
2021/01/18 14:03:48;;;;;;;4.43;1.90;;;;;;;19.38;43.78;101188.92;;;;-51
2021/01/18 14:06:48;;;;;;;3.85;1.91;;;;;;;19.38;43.69;101191.56;;;;-51
2021/01/18 14:09:49;;;;;;;6.89;1.75;;;;;;;19.38;43.58;101185.39;;;;-50
2021/01/18 14:12:48;;;;;;;4.87;1.65;;;;;;;19.40;44.33;101186.98;;;;-44
2021/01/18 14:15:48;;;;;;;3.35;1.63;;;;;;;19.42;44.36;101183.52;;;;-46
2021/01/18 14:18:48;;;;;;;7.24;2.01;;;;;;;19.44;44.57;101185.83;;;;-49
2021/01/18 14:21:49;;;;;;;4.42;1.91;;;;;;;19.49;44.69;101193.17;;;;-55
2021/01/18 14:24:48;;;;;;;6.04;1.92;;;;;;;19.49;44.42;101194.72;;;;-48
2021/01/18 14:27:48;;;;;;;7.00;1.87;;;;;;;19.53;44.39;101195.25;;;;-51
2021/01/18 14:30:48;;;;;;;5.18;1.89;;;;;;;19.55;44.41;101188.56;;;;-52
2021/01/18 14:33:48;;;;;;;3.19;1.65;;;;;;;19.57;44.42;101187.84;;;;-52
2021/01/18 14:36:48;;;;;;;4.65;1.60;;;;;;;19.56;44.35;101189.87;;;;-52
2021/01/18 14:39:48;;;;;;;2.76;1.68;;;;;;;19.57;44.37;101192.02;;;;-52
2021/01/18 14:42:48;;;;;;;3.87;1.73;;;;;;;19.58;44.62;101186.09;;;;-55
2021/01/18 14:45:48;;;;;;;2.51;1.71;;;;;;;19.57;44.58;101191.70;;;;-51
2021/01/18 14:48:48;;;;;;;3.06;1.54;;;;;;;19.59;44.41;101187.66;;;;-55
2021/01/18 14:51:48;;;;;;;3.27;1.75;;;;;;;19.58;44.51;101188.85;;;;-52
2021/01/18 14:54:48;;;;;;;4.67;1.70;;;;;;;19.60;44.45;101190.35;;;;-52
2021/01/18 14:57:48;;;;;;;2.99;1.80;;;;;;;19.60;44.44;101190.27;;;;-53
2021/01/18 15:00:48;;;;;;;2.77;1.71;;;;;;;19.62;44.54;101189.90;;;;-56
2021/01/18 15:03:48;;;;;;;3.11;1.75;;;;;;;19.62;44.02;101192.42;;;;-54
2021/01/18 15:06:48;;;;;;;5.82;1.73;;;;;;;19.59;44.12;101189.29;;;;-48
2021/01/18 15:09:48;;;;;;;2.83;1.69;;;;;;;19.58;44.21;101188.85;;;;-49
2021/01/18 15:12:48;;;;;;;1.85;1.62;;;;;;;19.58;44.24;101189.91;;;;-57
2021/01/18 15:15:47;;;;;;;1.81;1.60;;;;;;;19.56;44.13;101188.66;;;;-43
2021/01/18 15:18:48;;;;;;;3.23;1.60;;;;;;;19.57;44.36;101195.84;;;;-46
2021/01/18 15:21:49;;;;;;;5.34;1.71;;;;;;;19.58;44.15;101194.05;;;;-53
2021/01/18 15:24:48;;;;;;;8.45;1.68;;;;;;;19.59;44.53;101199.94;;;;-56
2021/01/18 15:27:48;;;;;;;5.49;1.79;;;;;;;19.60;44.48;101194.91;;;;-56
2021/01/18 15:30:48;;;;;;;4.76;1.70;;;;;;;19.61;44.15;101198.23;;;;-51
2021/01/18 15:33:48;;;;;;;2.41;1.66;;;;;;;19.59;44.22;101200.02;;;;-51
2021/01/18 15:36:48;;;;;;;2.26;1.57;;;;;;;19.61;44.10;101206.73;;;;-51
2021/01/18 15:39:48;;;;;;;4.18;1.94;;;;;;;19.61;44.33;101207.05;;;;-50
2021/01/18 15:42:48;;;;;;;3.08;1.59;;;;;;;19.63;44.37;101205.27;;;;-52
2021/01/18 15:45:48;;;;;;;6.16;2.55;;;;;;;19.62;44.07;101203.39;;;;-47
2021/01/18 15:48:48;;;;;;;4.82;1.86;;;;;;;19.66;44.07;101198.59;;;;-53
2021/01/18 15:51:48;;;;;;;3.27;1.80;;;;;;;19.66;44.20;101198.19;;;;-51
2021/01/18 15:54:49;;;;;;;2.82;1.81;;;;;;;19.68;44.21;101208.06;;;;-51
2021/01/18 15:57:48;;;;;;;3.74;1.81;;;;;;;19.69;44.19;101209.55;;;;-52
2021/01/18 16:00:48;;;;;;;4.70;1.75;;;;;;;19.72;44.32;101211.01;;;;-50
2021/01/18 16:03:48;;;;;;;6.49;1.80;;;;;;;19.74;44.15;101220.23;;;;-51
2021/01/18 16:06:48;;;;;;;6.29;1.93;;;;;;;19.73;44.08;101225.41;;;;-49
2021/01/18 16:09:48;;;;;;;4.80;1.80;;;;;;;19.75;44.21;101228.69;;;;-53
2021/01/18 16:12:48;;;;;;;1.98;1.70;;;;;;;19.74;44.17;101229.75;;;;-57
2021/01/18 16:15:48;;;;;;;5.65;1.74;;;;;;;19.76;44.01;101225.88;;;;-51
2021/01/18 16:18:48;;;;;;;3.59;1.81;;;;;;;19.76;44.08;101230.67;;;;-51
2021/01/18 16:21:48;;;;;;;3.13;1.80;;;;;;;19.77;44.11;101237.34;;;;-51
2021/01/18 16:24:48;;;;;;;2.17;1.83;;;;;;;19.79;44.27;101236.33;;;;-49
2021/01/18 16:27:48;;;;;;;1.94;1.60;;;;;;;19.80;44.27;101232.62;;;;-51
2021/01/18 16:30:48;;;;;;;4.26;1.80;;;;;;;19.82;44.24;101226.55;;;;-49
2021/01/18 16:33:48;;;;;;;2.45;1.78;;;;;;;19.82;44.29;101225.42;;;;-49
2021/01/18 16:36:48;;;;;;;14.53;1.84;;;;;;;19.85;44.35;101222.69;;;;-52
2021/01/18 16:39:48;;;;;;;2.72;1.60;;;;;;;19.86;44.14;101224.52;;;;-51
2021/01/18 16:42:48;;;;;;;2.16;1.57;;;;;;;19.86;44.24;101221.26;;;;-59
2021/01/18 16:45:48;;;;;;;4.15;1.77;;;;;;;19.89;44.28;101220.64;;;;-58